Time;durP1;ratioP1;P1;durP2;ratioP2;P2;SDS_P1;SDS_P2;PMS_P1;PMS_P2;Temp;Humidity;BMP_temperature;BMP_pressure;BME280_temperature;BME280_humidity;BME280_pressure;Samples;Min_cycle;Max_cycle;Signal;HPM_P1;HPM_P2
2021/07/10 00:01:08;;;;;;;24.70;16.80;;;;;;;16.52;87.65;101111.16;5017318;28;20231;-79
2021/07/10 00:03:34;;;;;;;25.43;16.67;;;;;;;16.54;87.74;101109.19;5017368;28;20213;-78
2021/07/10 00:06:01;;;;;;;22.87;15.80;;;;;;;16.56;87.81;101107.25;5017617;28;20215;-79
2021/07/10 00:08:28;;;;;;;27.97;15.43;;;;;;;16.56;87.97;101101.00;5018146;28;20212;-78
2021/07/10 00:10:55;;;;;;;25.27;17.00;;;;;;;16.55;88.00;101102.00;5017581;28;20573;-77
2021/07/10 00:13:22;;;;;;;25.73;15.53;;;;;;;16.55;88.01;101099.31;5017277;28;20612;-78
2021/07/10 00:15:48;;;;;;;24.13;15.40;;;;;;;16.53;87.90;101091.34;5016959;28;20228;-77
2021/07/10 00:18:15;;;;;;;29.83;16.10;;;;;;;16.51;88.02;101087.94;5017127;28;20208;-79
2021/07/10 00:20:42;;;;;;;25.97;15.07;;;;;;;16.49;88.04;101078.28;5025273;28;20229;-78
2021/07/10 00:23:08;;;;;;;30.70;16.00;;;;;;;16.45;87.90;101077.69;5036708;28;20697;-78
2021/07/10 00:25:35;;;;;;;29.33;16.53;;;;;;;16.43;87.93;101084.19;5036663;28;20208;-78
2021/07/10 00:28:03;;;;;;;25.97;16.47;;;;;;;16.40;88.16;101077.22;5036659;28;20215;-78
2021/07/10 00:30:30;;;;;;;27.77;16.30;;;;;;;16.38;88.30;101076.47;5036663;28;20203;-77
2021/07/10 00:32:57;;;;;;;26.53;15.57;;;;;;;16.37;88.24;101079.28;5036961;28;20279;-78
2021/07/10 00:35:23;;;;;;;25.13;16.13;;;;;;;16.34;88.10;101075.00;5036324;28;20210;-77
2021/07/10 00:37:50;;;;;;;24.03;15.90;;;;;;;16.33;88.15;101068.78;5036602;28;20704;-77
2021/07/10 00:40:17;;;;;;;29.20;16.77;;;;;;;16.32;88.41;101068.91;5036493;28;20213;-77
2021/07/10 00:42:45;;;;;;;21.90;16.10;;;;;;;16.31;88.38;101064.50;5036385;28;20233;-79
2021/07/10 00:45:14;;;;;;;28.83;16.23;;;;;;;16.30;88.58;101060.94;5036453;28;20215;-77
2021/07/10 00:47:42;;;;;;;32.17;16.07;;;;;;;16.30;88.58;101058.25;5036654;28;20204;-78
2021/07/10 00:50:11;;;;;;;26.53;15.67;;;;;;;16.27;88.53;101063.06;5036888;28;20693;-78
2021/07/10 00:52:37;;;;;;;26.47;16.23;;;;;;;16.25;88.75;101059.63;5036108;28;20230;-77
2021/07/10 00:55:05;;;;;;;26.27;16.43;;;;;;;16.24;88.71;101052.56;5036279;28;20563;-79
2021/07/10 00:57:32;;;;;;;27.33;17.03;;;;;;;16.23;88.51;101054.38;5035913;28;20210;-78
2021/07/10 00:59:59;;;;;;;34.73;17.33;;;;;;;16.22;88.86;101054.50;5035540;28;20203;-79
2021/07/10 01:02:27;;;;;;;32.07;16.83;;;;;;;16.24;88.65;101063.31;5035603;28;20232;-79
2021/07/10 01:04:53;;;;;;;24.47;16.87;;;;;;;16.23;88.96;101064.28;5035952;28;20223;-79
2021/07/10 01:07:20;;;;;;;28.60;16.67;;;;;;;16.24;88.80;101057.91;5036347;28;20231;-79
2021/07/10 01:09:46;;;;;;;27.00;16.07;;;;;;;16.24;89.15;101063.31;5035859;28;20210;-78
2021/07/10 01:12:13;;;;;;;24.97;16.27;;;;;;;16.24;89.08;101064.16;5036103;28;20228;-78
2021/07/10 01:14:41;;;;;;;23.00;16.70;;;;;;;16.25;89.07;101056.94;5036785;28;20577;-79
2021/07/10 01:17:08;;;;;;;26.53;17.67;;;;;;;16.25;89.11;101062.31;5035621;28;20262;-78
2021/07/10 01:19:36;;;;;;;22.37;16.97;;;;;;;16.26;89.23;101056.81;5036035;28;20206;-78
2021/07/10 01:22:08;;;;;;;23.80;16.90;;;;;;;16.26;89.12;101055.97;5036146;28;20246;-78
2021/07/10 01:24:35;;;;;;;27.00;16.63;;;;;;;16.26;89.00;101059.50;5036057;28;20197;-78
2021/07/10 01:27:02;;;;;;;22.00;16.33;;;;;;;16.25;89.03;101055.13;5035463;28;20210;-77
2021/07/10 01:29:29;;;;;;;20.80;15.63;;;;;;;16.28;89.12;101056.72;5035918;28;20207;-78
2021/07/10 01:31:58;;;;;;;20.53;14.97;;;;;;;16.28;89.02;101065.63;5036094;28;20228;-78
2021/07/10 01:34:24;;;;;;;19.60;15.03;;;;;;;16.28;88.91;101064.78;5035643;28;20663;-78
2021/07/10 01:36:51;;;;;;;21.97;16.07;;;;;;;16.29;88.92;101061.97;5035840;28;20204;-78
2021/07/10 01:39:19;;;;;;;21.53;14.57;;;;;;;16.28;88.98;101065.63;5035690;28;20681;-77
2021/07/10 01:41:49;;;;;;;22.30;14.93;;;;;;;16.29;89.12;101064.66;5035316;28;20233;-79
2021/07/10 01:44:15;;;;;;;23.53;15.33;;;;;;;16.31;89.02;101069.88;5035197;28;20722;-79
2021/07/10 01:46:42;;;;;;;24.23;15.77;;;;;;;16.29;89.11;101066.47;5035371;28;20204;-79
2021/07/10 01:49:08;;;;;;;22.00;15.67;;;;;;;16.27;88.99;101065.75;5036033;28;20214;-78
2021/07/10 01:51:36;;;;;;;25.97;16.77;;;;;;;16.27;88.82;101057.69;5035429;28;20226;-77
2021/07/10 01:54:02;;;;;;;21.37;16.13;;;;;;;16.25;88.97;101054.25;5035323;28;20213;-77
2021/07/10 01:56:30;;;;;;;23.43;16.17;;;;;;;16.24;88.73;101063.31;5035839;28;20206;-78
2021/07/10 01:58:57;;;;;;;27.70;17.00;;;;;;;16.23;88.98;101058.91;5036009;28;20207;-78
2021/07/10 02:01:23;;;;;;;27.07;16.47;;;;;;;16.22;88.99;101058.03;5035373;28;20257;-78
2021/07/10 02:03:50;;;;;;;28.83;18.30;;;;;;;16.22;88.85;101054.50;5035020;28;20253;-78
2021/07/10 02:06:17;;;;;;;27.90;17.50;;;;;;;16.21;88.86;101052.78;5035283;28;20218;-77
2021/07/10 02:08:43;;;;;;;30.70;18.10;;;;;;;16.20;89.05;101061.81;5035567;28;20698;-77
2021/07/10 02:11:11;;;;;;;29.30;18.60;;;;;;;16.17;88.84;101062.94;5035511;28;20214;-78
2021/07/10 02:13:39;;;;;;;29.57;18.60;;;;;;;16.17;88.91;101054.00;5035445;28;20214;-79
2021/07/10 02:16:06;;;;;;;28.00;17.20;;;;;;;16.16;88.93;101054.97;5035699;28;20208;-79
2021/07/10 02:18:32;;;;;;;23.97;17.23;;;;;;;16.14;88.88;101054.25;5035701;28;20562;-78
2021/07/10 02:20:59;;;;;;;26.37;17.90;;;;;;;16.11;88.99;101057.22;5035988;28;20661;-80
2021/07/10 02:23:25;;;;;;;27.40;17.63;;;;;;;16.10;88.91;101066.25;5035216;28;20237;-80
2021/07/10 02:25:52;;;;;;;26.93;17.10;;;;;;;16.08;89.04;101057.44;5035090;28;20210;-81
2021/07/10 02:28:19;;;;;;;24.20;16.47;;;;;;;16.06;88.95;101054.88;5035556;28;20206;-80
2021/07/10 02:30:47;;;;;;;23.03;15.47;;;;;;;16.05;88.85;101057.69;5035320;28;20541;-79
2021/07/10 02:33:15;;;;;;;25.73;16.53;;;;;;;16.03;88.84;101054.25;5034348;28;20229;-79
2021/07/10 02:35:42;;;;;;;25.83;16.10;;;;;;;16.00;88.76;101052.66;5034902;28;20679;-79
2021/07/10 02:38:08;;;;;;;26.47;16.90;;;;;;;15.97;88.75;101052.91;5035022;28;20692;-78
2021/07/10 02:40:35;;;;;;;23.97;16.97;;;;;;;15.95;88.59;101058.41;5034513;28;20218;-79
2021/07/10 02:43:03;;;;;;;30.37;16.67;;;;;;;15.93;88.58;101063.06;5035035;22;20242;-64
2021/07/10 02:45:30;;;;;;;26.00;16.60;;;;;;;15.92;88.53;101064.03;5008759;28;20234;-64
2021/07/10 02:47:59;;;;;;;27.70;16.90;;;;;;;15.90;88.76;101060.63;5010043;28;20230;-64
2021/07/10 02:50:27;;;;;;;24.17;16.77;;;;;;;15.90;88.60;101052.56;5006095;28;20204;-64
2021/07/10 02:52:54;;;;;;;28.73;17.43;;;;;;;15.89;88.94;101050.84;5008435;28;20203;-65
2021/07/10 02:55:22;;;;;;;23.50;16.57;;;;;;;15.90;88.53;101057.06;5009026;28;20980;-64
2021/07/10 02:57:48;;;;;;;24.60;16.90;;;;;;;15.90;88.82;101051.72;5008361;28;20555;-63
2021/07/10 03:00:19;;;;;;;27.17;17.83;;;;;;;15.90;88.73;101046.34;5010643;28;20215;-65
2021/07/10 03:02:46;;;;;;;24.17;16.53;;;;;;;15.88;88.46;101045.59;5008498;28;20227;-63
2021/07/10 03:05:15;;;;;;;29.50;17.50;;;;;;;15.85;88.71;101045.84;5046722;22;20231;-69
2021/07/10 03:07:42;;;;;;;26.20;17.37;;;;;;;15.85;88.71;101053.88;5051139;28;20198;-69
2021/07/10 03:10:12;;;;;;;28.87;17.80;;;;;;;15.82;88.44;101043.38;5041727;28;20218;-69
2021/07/10 03:12:39;;;;;;;25.70;17.70;;;;;;;15.82;88.56;101046.94;5043190;28;20205;-69
2021/07/10 03:15:07;;;;;;;30.43;17.40;;;;;;;15.82;88.24;101052.31;5029991;28;20218;-69
2021/07/10 03:17:34;;;;;;;28.07;17.70;;;;;;;15.80;88.32;101048.88;5028838;28;20202;-69
2021/07/10 03:20:00;;;;;;;25.57;16.70;;;;;;;15.78;88.35;101040.06;5029417;28;20210;-69
2021/07/10 03:22:28;;;;;;;34.47;17.43;;;;;;;15.77;88.24;101034.81;5021543;28;20230;-69
2021/07/10 03:24:54;;;;;;;26.50;17.73;;;;;;;15.77;87.82;101032.13;5028188;28;20257;-69
2021/07/10 03:27:21;;;;;;;22.70;16.57;;;;;;;15.73;88.16;101031.56;5019843;28;20551;-68
2021/07/10 03:29:48;;;;;;;23.60;16.23;;;;;;;15.72;87.83;101034.34;5032253;28;20195;-69
2021/07/10 03:32:15;;;;;;;26.70;16.97;;;;;;;15.71;87.86;101038.00;5028109;28;20199;-69
2021/07/10 03:34:41;;;;;;;23.43;15.60;;;;;;;15.68;87.82;101035.56;5030530;28;20230;-69
2021/07/10 03:37:08;;;;;;;22.17;15.73;;;;;;;15.64;87.72;101034.94;5027285;28;20198;-69
2021/07/10 03:39:35;;;;;;;25.63;16.43;;;;;;;15.62;87.49;101031.53;5031057;28;20214;-69
2021/07/10 03:42:02;;;;;;;21.73;15.17;;;;;;;15.59;87.53;101034.44;5027308;28;20210;-69
2021/07/10 03:44:28;;;;;;;25.90;16.47;;;;;;;15.55;87.50;101043.69;5030865;28;20237;-69
2021/07/10 03:46:55;;;;;;;24.50;16.27;;;;;;;15.52;87.34;101044.78;5028282;28;20225;-70
2021/07/10 03:49:22;;;;;;;24.20;15.67;;;;;;;15.52;87.25;101043.94;5024132;28;20205;-70
2021/07/10 03:51:48;;;;;;;20.00;15.60;;;;;;;15.51;87.06;101037.72;5023604;28;20234;-69
2021/07/10 03:54:15;;;;;;;21.40;15.53;;;;;;;15.51;87.00;101037.72;5024673;28;20572;-69
2021/07/10 03:56:42;;;;;;;23.63;16.03;;;;;;;15.51;87.18;101035.03;5032155;28;20218;-69
2021/07/10 03:59:09;;;;;;;25.60;15.83;;;;;;;15.52;87.20;101025.16;5027998;28;20591;-68
2021/07/10 04:01:36;;;;;;;26.87;17.50;;;;;;;15.53;87.04;101032.22;5030293;28;20657;-69
2021/07/10 04:04:02;;;;;;;26.87;16.93;;;;;;;15.54;87.24;101032.09;5020526;28;20238;-69
2021/07/10 04:06:29;;;;;;;27.13;16.63;;;;;;;15.56;87.36;101032.03;5030881;28;20206;-69
2021/07/10 04:08:56;;;;;;;22.13;16.10;;;;;;;15.57;87.24;101025.69;5032689;28;20207;-69
2021/07/10 04:11:22;;;;;;;23.50;16.07;;;;;;;15.58;87.31;101022.03;5029785;28;20210;-69
2021/07/10 04:13:50;;;;;;;26.70;17.83;;;;;;;15.60;87.49;101025.41;5025900;28;20210;-70
2021/07/10 04:16:17;;;;;;;25.30;16.67;;;;;;;15.60;87.28;101028.94;5019983;28;20211;-69
2021/07/10 04:18:43;;;;;;;22.47;16.17;;;;;;;15.62;86.91;101028.84;5030469;28;20208;-69
2021/07/10 04:21:10;;;;;;;27.67;16.13;;;;;;;15.61;87.27;101027.13;5024458;28;20210;-69
2021/07/10 04:23:36;;;;;;;24.47;16.40;;;;;;;15.61;86.79;101027.13;5024702;28;20223;-69
2021/07/10 04:26:03;;;;;;;21.50;15.13;;;;;;;15.61;87.00;101025.28;5023965;28;20218;-68
2021/07/10 04:28:30;;;;;;;20.93;15.20;;;;;;;15.62;86.88;101023.47;5031030;28;20207;-69
2021/07/10 04:30:57;;;;;;;20.73;14.47;;;;;;;15.61;86.68;101027.13;5025430;28;20217;-69
2021/07/10 04:33:24;;;;;;;21.73;16.00;;;;;;;15.61;86.65;101037.88;5029302;28;20210;-69
2021/07/10 04:35:50;;;;;;;20.17;15.13;;;;;;;15.60;86.70;101033.47;5021876;28;20268;-67
2021/07/10 04:38:17;;;;;;;20.23;15.10;;;;;;;15.61;86.52;101033.34;5024425;28;20203;-69
2021/07/10 04:40:44;;;;;;;20.23;14.37;;;;;;;15.63;86.31;101042.16;5026789;28;20203;-69
2021/07/10 04:43:11;;;;;;;18.87;14.70;;;;;;;15.63;86.31;101035.91;5019915;28;20225;-69
2021/07/10 04:45:39;;;;;;;17.33;14.33;;;;;;;15.65;86.02;101039.34;5029978;28;20275;-69
2021/07/10 04:48:07;;;;;;;18.27;14.60;;;;;;;15.65;85.83;101039.34;5029827;28;20562;-69
2021/07/10 04:50:34;;;;;;;21.77;14.17;;;;;;;15.67;85.99;101032.03;5028961;28;20218;-69
2021/07/10 04:53:01;;;;;;;19.47;15.00;;;;;;;15.69;85.89;101030.06;5027074;28;20202;-70
2021/07/10 04:55:27;;;;;;;24.97;16.07;;;;;;;15.72;85.79;101034.34;5027408;28;20223;-68
2021/07/10 04:57:54;;;;;;;26.17;17.43;;;;;;;15.77;85.90;101032.13;5025410;28;20202;-69
2021/07/10 05:00:23;;;;;;;26.00;18.17;;;;;;;15.82;86.07;101035.31;5028682;28;20680;-69
2021/07/10 05:02:49;;;;;;;29.53;19.90;;;;;;;15.88;86.47;101030.34;5029797;28;20231;-69
2021/07/10 05:05:17;;;;;;;34.33;21.37;;;;;;;15.97;86.68;101034.09;5026897;28;20956;-70
2021/07/10 05:07:44;;;;;;;31.23;19.67;;;;;;;16.02;86.96;101033.75;5028851;28;20203;-69
2021/07/10 05:10:11;;;;;;;37.50;22.20;;;;;;;16.08;87.08;101035.94;5027147;28;20206;-70
2021/07/10 05:12:38;;;;;;;34.57;21.07;;;;;;;16.12;87.27;101037.41;5025596;28;20206;-69
2021/07/10 05:15:06;;;;;;;35.73;22.33;;;;;;;16.16;87.30;101033.47;5024634;28;20240;-69
2021/07/10 05:17:32;;;;;;;28.93;20.33;;;;;;;16.20;87.33;101034.97;5030119;28;20205;-68
2021/07/10 05:19:59;;;;;;;25.57;18.63;;;;;;;16.21;87.33;101029.47;5026965;28;20210;-69
2021/07/10 05:22:27;;;;;;;25.87;18.43;;;;;;;16.23;87.44;101026.66;5022146;28;20204;-69
2021/07/10 05:24:53;;;;;;;21.90;17.27;;;;;;;16.25;87.44;101027.38;5022731;28;20237;-69
2021/07/10 05:27:20;;;;;;;22.10;15.90;;;;;;;16.26;87.45;101035.31;5029766;28;20873;-69
2021/07/10 05:29:46;;;;;;;22.70;15.90;;;;;;;16.29;87.29;101035.09;5028526;28;20205;-70
2021/07/10 05:32:13;;;;;;;23.93;16.33;;;;;;;16.33;87.23;101024.91;5020581;28;20219;-68
2021/07/10 05:34:40;;;;;;;20.57;15.63;;;;;;;16.37;87.24;101023.69;5023820;28;20230;-69
2021/07/10 05:37:07;;;;;;;20.60;15.33;;;;;;;16.43;87.07;101030.41;5020363;28;20206;-69
2021/07/10 05:39:35;;;;;;;19.60;15.10;;;;;;;16.48;86.99;101034.41;5028513;28;20264;-69
2021/07/10 05:42:01;;;;;;;22.80;16.53;;;;;;;16.54;87.03;101039.28;5029023;28;20238;-69
2021/07/10 05:44:28;;;;;;;20.33;15.23;;;;;;;16.64;87.02;101034.91;5022294;28;20627;-67
2021/07/10 05:46:54;;;;;;;24.83;16.03;;;;;;;16.72;86.56;101031.56;5024993;28;20211;-68
2021/07/10 05:49:22;;;;;;;20.63;15.70;;;;;;;16.81;86.43;101029.97;5027164;28;20209;-69
2021/07/10 05:51:48;;;;;;;18.03;15.53;;;;;;;16.88;86.21;101031.16;5028364;28;20255;-69
2021/07/10 05:54:15;;;;;;;23.70;15.30;;;;;;;16.96;86.23;101032.22;5024860;28;20667;-68
2021/07/10 05:56:44;;;;;;;20.97;15.53;;;;;;;17.06;85.61;101020.66;5027010;28;20208;-67
2021/07/10 05:59:10;;;;;;;22.97;15.67;;;;;;;17.13;85.50;101028.09;5028137;28;20210;-68
2021/07/10 06:01:37;;;;;;;17.67;14.00;;;;;;;17.23;84.98;101037.09;5027061;28;20210;-68
2021/07/10 06:04:04;;;;;;;17.37;14.23;;;;;;;17.32;84.42;101047.09;5027317;28;20227;-68
2021/07/10 06:06:30;;;;;;;18.50;13.83;;;;;;;17.44;84.16;101044.31;5027450;28;20205;-68
2021/07/10 06:08:57;;;;;;;18.33;14.17;;;;;;;17.54;83.63;101042.56;5027649;28;20224;-69
2021/07/10 06:11:24;;;;;;;13.77;12.10;;;;;;;17.65;83.25;101047.91;5027718;28;20570;-69
2021/07/10 06:13:52;;;;;;;16.40;12.97;;;;;;;17.74;82.42;101049.78;5026720;28;20301;-67
2021/07/10 06:16:18;;;;;;;17.70;12.83;;;;;;;17.80;81.80;101038.47;5026080;28;20208;-68
2021/07/10 06:18:45;;;;;;;16.30;12.40;;;;;;;17.89;81.34;101042.22;5027083;28;20222;-68
2021/07/10 06:21:11;;;;;;;16.50;12.80;;;;;;;18.00;80.79;101042.97;5027057;28;20209;-68
2021/07/10 06:23:39;;;;;;;14.60;11.57;;;;;;;18.15;79.95;101048.00;5027287;28;20234;-69
2021/07/10 06:26:05;;;;;;;12.60;10.63;;;;;;;18.24;78.99;101045.34;5026003;28;20571;-69
2021/07/10 06:28:32;;;;;;;13.47;12.07;;;;;;;18.33;77.92;101047.22;5027030;28;20614;-68
2021/07/10 06:31:00;;;;;;;14.70;11.57;;;;;;;18.41;76.96;101046.53;5027313;28;20204;-68
2021/07/10 06:33:26;;;;;;;16.20;12.33;;;;;;;18.49;75.94;101046.69;5025642;28;20609;-68
2021/07/10 06:35:52;;;;;;;13.20;11.53;;;;;;;18.54;75.00;101049.81;5026352;28;20239;-67
2021/07/10 06:38:19;;;;;;;12.83;11.37;;;;;;;18.62;74.51;101049.19;5026743;28;20203;-68
2021/07/10 06:40:45;;;;;;;12.17;10.77;;;;;;;18.71;73.89;101053.72;5029107;28;20206;-68
2021/07/10 06:43:12;;;;;;;12.53;11.30;;;;;;;18.80;73.30;101060.13;5029333;28;20229;-68
2021/07/10 06:45:38;;;;;;;12.53;11.23;;;;;;;18.91;72.81;101057.28;5023808;28;20614;-67
2021/07/10 06:48:08;;;;;;;13.40;10.93;;;;;;;19.02;72.24;101058.00;5028899;28;20926;-68
2021/07/10 06:50:35;;;;;;;13.17;11.43;;;;;;;19.15;71.99;101049.63;5028708;28;20203;-68
2021/07/10 06:53:01;;;;;;;17.93;10.97;;;;;;;19.30;71.74;101050.91;5031336;28;20211;-66
2021/07/10 06:55:28;;;;;;;16.03;11.27;;;;;;;19.46;71.07;101055.72;5030770;28;20219;-67
2021/07/10 06:57:54;;;;;;;13.67;11.60;;;;;;;19.58;70.30;101051.03;5021547;28;20596;-67
2021/07/10 07:00:21;;;;;;;13.00;11.10;;;;;;;19.66;69.46;101051.16;5029213;28;20209;-67
2021/07/10 07:02:47;;;;;;;11.77;10.50;;;;;;;19.72;68.50;101053.25;5029660;28;20203;-67
2021/07/10 07:05:15;;;;;;;12.23;10.67;;;;;;;19.76;68.33;101051.97;5028247;28;20749;-67
2021/07/10 07:07:42;;;;;;;12.73;11.00;;;;;;;19.81;68.07;101057.81;5028670;28;20247;-68
2021/07/10 07:10:12;;;;;;;12.37;10.10;;;;;;;19.84;67.23;101057.50;5030944;28;20599;-69
2021/07/10 07:12:39;;;;;;;12.13;10.20;;;;;;;19.83;66.94;101050.41;5029666;28;20205;-67
2021/07/10 07:15:08;;;;;;;11.30;10.20;;;;;;;19.82;66.68;101059.50;5024717;28;20225;-67
2021/07/10 07:17:34;;;;;;;12.17;10.23;;;;;;;19.89;67.09;101047.09;5027001;28;20219;-69
2021/07/10 07:20:01;;;;;;;13.23;11.23;;;;;;;20.02;67.35;101050.34;5024581;28;20211;-68
2021/07/10 07:22:28;;;;;;;13.67;11.40;;;;;;;20.08;66.36;101049.72;5026719;28;20205;-67
2021/07/10 07:24:55;;;;;;;13.83;10.70;;;;;;;20.10;65.78;101055.84;5025334;28;20228;-67
2021/07/10 07:27:21;;;;;;;11.53;10.33;;;;;;;20.10;65.92;101053.13;5025808;28;20569;-68
2021/07/10 07:29:48;;;;;;;13.00;10.37;;;;;;;20.13;65.98;101048.44;5023606;28;20286;-67
2021/07/10 07:32:14;;;;;;;13.13;10.33;;;;;;;20.15;65.98;101047.28;5032223;28;20208;-68
2021/07/10 07:34:41;;;;;;;12.27;10.97;;;;;;;20.14;65.71;101045.59;5028472;28;20227;-67
2021/07/10 07:37:07;;;;;;;11.27;10.13;;;;;;;20.11;65.98;101044.03;5020799;28;20236;-67
2021/07/10 07:39:35;;;;;;;11.73;10.07;;;;;;;20.15;66.58;101046.44;5027418;28;20689;-67
2021/07/10 07:42:02;;;;;;;11.63;10.30;;;;;;;20.22;66.30;101043.00;5031754;28;20697;-67
2021/07/10 07:44:28;;;;;;;11.10;9.43;;;;;;;20.33;66.19;101044.63;5028740;28;20251;-67
2021/07/10 07:46:55;;;;;;;10.97;8.67;;;;;;;20.37;65.30;101040.66;5023289;28;20217;-69
2021/07/10 07:49:21;;;;;;;12.33;9.80;;;;;;;20.39;64.79;101038.66;5024423;28;20853;-68
2021/07/10 07:51:48;;;;;;;14.13;11.13;;;;;;;20.40;64.44;101032.25;5030544;28;20203;-67
2021/07/10 07:54:14;;;;;;;11.63;10.50;;;;;;;20.40;64.73;101024.13;5028754;28;20603;-67
2021/07/10 07:56:42;;;;;;;11.03;9.77;;;;;;;20.44;65.55;101030.94;5030529;28;20673;-68
2021/07/10 07:59:09;;;;;;;14.63;11.33;;;;;;;20.53;65.55;101040.00;5025087;28;20208;-69
2021/07/10 08:01:35;;;;;;;11.53;10.43;;;;;;;20.57;65.37;101036.00;5021537;28;20245;-68
2021/07/10 08:04:02;;;;;;;12.60;10.07;;;;;;;20.62;65.76;101036.38;5029705;28;20264;-67
2021/07/10 08:06:30;;;;;;;11.60;9.40;;;;;;;20.68;64.75;101033.06;5029238;28;20203;-68
2021/07/10 08:08:56;;;;;;;11.33;9.90;;;;;;;20.72;64.47;101034.47;5030306;28;20221;-68
2021/07/10 08:11:23;;;;;;;11.50;10.27;;;;;;;20.74;64.04;101021.63;5031084;28;20208;-69
2021/07/10 08:13:51;;;;;;;15.43;11.07;;;;;;;20.76;63.89;101031.31;5026211;28;20213;-68
2021/07/10 08:16:17;;;;;;;13.13;9.67;;;;;;;20.73;63.69;101031.59;5024222;28;20203;-68
2021/07/10 08:18:44;;;;;;;12.07;10.87;;;;;;;20.75;63.79;101024.19;5030061;28;20209;-68
2021/07/10 08:21:10;;;;;;;11.53;10.33;;;;;;;20.83;64.10;101022.53;5028934;28;20215;-68
2021/07/10 08:23:37;;;;;;;11.17;9.90;;;;;;;20.86;63.24;101030.38;5026764;28;20239;-68
2021/07/10 08:26:04;;;;;;;13.37;11.47;;;;;;;20.85;63.62;101024.09;5027820;28;20346;-68
2021/07/10 08:28:31;;;;;;;13.63;12.23;;;;;;;20.92;64.33;101022.50;5030241;28;20217;-68
2021/07/10 08:30:59;;;;;;;13.40;12.03;;;;;;;21.04;64.66;101028.50;5031621;28;20216;-68
2021/07/10 08:33:25;;;;;;;16.20;12.33;;;;;;;21.08;64.20;101030.75;5031181;28;20205;-67
2021/07/10 08:35:52;;;;;;;13.43;12.03;;;;;;;21.11;63.81;101032.31;5030609;28;20220;-68
2021/07/10 08:38:18;;;;;;;14.20;12.13;;;;;;;21.13;63.94;101025.72;5030175;28;20217;-68
2021/07/10 08:40:46;;;;;;;13.83;12.47;;;;;;;21.20;63.83;101030.53;5031194;28;20215;-67
2021/07/10 08:43:12;;;;;;;12.70;11.40;;;;;;;21.21;63.79;101032.25;5027504;28;20218;-67
2021/07/10 08:45:40;;;;;;;13.33;12.03;;;;;;;21.23;63.53;101036.50;5029811;28;20234;-67
2021/07/10 08:48:08;;;;;;;13.37;11.97;;;;;;;21.25;63.44;101029.06;5030608;28;20230;-67
2021/07/10 08:50:35;;;;;;;13.60;12.20;;;;;;;21.31;63.51;101027.59;5028476;28;20211;-67
2021/07/10 08:53:02;;;;;;;14.53;12.13;;;;;;;21.42;63.36;101035.47;5028368;28;20209;-66
2021/07/10 08:55:29;;;;;;;13.33;11.97;;;;;;;21.52;63.09;101021.81;5029605;28;20228;-68
2021/07/10 08:57:56;;;;;;;14.50;12.40;;;;;;;21.67;62.99;101021.09;5027829;28;20216;-68
2021/07/10 09:00:26;;;;;;;68.45;19.20;;;;;;;21.75;62.32;101020.28;5030085;28;20213;-68
2021/07/10 09:02:55;;;;;;;35.10;14.50;;;;;;;21.85;62.29;101022.88;5029365;28;20206;-68
2021/07/10 09:05:23;;;;;;;13.60;12.13;;;;;;;21.92;62.25;101021.22;5056286;22;20229;-66
2021/07/10 09:08:12;;;;;;;13.43;12.18;;;;;;;22.04;61.75;101025.34;5033135;28;20662;-66
2021/07/10 09:10:41;;;;;;;13.13;11.93;;;;;;;22.15;61.84;101023.22;5033676;28;20213;-66
2021/07/10 09:13:08;;;;;;;12.77;11.48;;;;;;;22.23;61.30;101018.84;5033015;28;20202;-66
2021/07/10 09:15:34;;;;;;;15.80;12.20;;;;;;;22.35;61.15;101021.09;5033194;28;20222;-66
2021/07/10 09:18:01;;;;;;;12.13;11.00;;;;;;;22.45;59.71;101021.81;5031982;28;20210;-66
2021/07/10 09:20:30;;;;;;;12.35;11.05;;;;;;;22.51;58.98;101021.16;5034015;28;20202;-66
2021/07/10 09:22:57;;;;;;;14.68;11.75;;;;;;;22.56;59.03;101020.66;5032292;28;20255;-64
2021/07/10 09:25:26;;;;;;;12.50;11.20;;;;;;;22.67;59.01;101017.63;5031176;28;20222;-65
2021/07/10 09:27:54;;;;;;;12.52;11.30;;;;;;;22.79;58.20;101019.03;5033337;28;20213;-65
2021/07/10 09:30:31;;;;;;;12.70;11.40;;;;;;;22.92;57.97;101012.28;5032371;28;20213;-64
2021/07/10 09:33:11;;;;;;;12.00;10.90;;;;;;;23.03;57.46;101015.50;5033596;28;20252;-64
2021/07/10 09:35:53;;;;;;;12.60;11.40;;;;;;;23.14;57.47;101015.16;5032713;28;20773;-65
2021/07/10 09:38:22;;;;;;;12.45;11.15;;;;;;;23.19;57.06;101004.63;5032749;28;20201;-64
2021/07/10 09:41:08;;;;;;;12.07;10.52;;;;;;;23.25;56.72;101011.25;5031733;28;20209;-65
2021/07/10 09:43:39;;;;;;;11.52;10.43;;;;;;;23.31;56.90;101007.00;5030797;28;20213;-65
2021/07/10 09:46:08;;;;;;;12.32;11.13;;;;;;;23.44;57.14;100991.88;5028590;28;20230;-65
2021/07/10 09:48:37;;;;;;;13.02;11.80;;;;;;;23.62;57.07;100990.84;5034650;28;20722;-65
2021/07/10 09:51:25;;;;;;;11.68;10.48;;;;;;;23.84;57.58;100996.38;5033228;28;20267;-65
2021/07/10 09:54:05;;;;;;;11.85;10.35;;;;;;;24.05;56.80;100989.50;5030041;28;20234;-65
2021/07/10 09:56:34;;;;;;;11.38;10.35;;;;;;;24.26;55.97;100997.97;5030762;28;20232;-66
2021/07/10 09:59:00;;;;;;;11.75;10.55;;;;;;;24.32;54.41;100996.41;5032700;28;20213;-64
2021/07/10 10:01:35;;;;;;;11.70;10.60;;;;;;;24.29;53.55;100989.44;5031840;28;20198;-65
2021/07/10 10:04:03;;;;;;;10.85;9.85;;;;;;;24.29;53.83;100985.88;5030501;28;20208;-65
2021/07/10 10:06:33;;;;;;;10.27;9.27;;;;;;;24.29;52.89;100988.59;5031686;28;20226;-65
2021/07/10 10:09:00;;;;;;;11.25;9.57;;;;;;;24.33;52.65;100976.34;5032074;28;20206;-65
2021/07/10 10:11:48;;;;;;;9.45;8.32;;;;;;;24.35;52.34;100975.13;5032788;28;20213;-65
2021/07/10 10:14:15;;;;;;;10.32;9.23;;;;;;;24.36;51.17;100970.53;5036281;28;20666;-65
2021/07/10 10:16:46;;;;;;;10.82;9.75;;;;;;;24.35;51.37;100968.84;5034820;28;20592;-65
2021/07/10 10:19:14;;;;;;;10.07;9.07;;;;;;;24.42;51.56;100975.25;5041183;28;20580;-65
2021/07/10 10:21:42;;;;;;;10.55;9.55;;;;;;;24.49;51.11;100962.63;5042831;28;20201;-65
2021/07/10 10:24:10;;;;;;;10.38;8.23;;;;;;;24.58;50.75;100961.53;5040196;28;20252;-64
2021/07/10 10:26:37;;;;;;;9.60;8.70;;;;;;;24.69;50.75;100957.56;5035959;28;20226;-64
2021/07/10 10:29:05;;;;;;;9.48;8.45;;;;;;;24.77;50.95;100957.47;5036476;28;20205;-64
2021/07/10 10:31:31;;;;;;;10.60;9.52;;;;;;;24.84;50.35;100959.31;5038718;28;20584;-64
2021/07/10 10:33:59;;;;;;;10.82;9.25;;;;;;;24.86;49.87;100957.25;5036383;28;20320;-64
2021/07/10 10:36:26;;;;;;;8.93;8.13;;;;;;;24.86;49.62;100950.94;5036114;28;20596;-65
2021/07/10 10:38:54;;;;;;;8.00;7.30;;;;;;;24.97;50.15;100949.69;5034517;28;20218;-65
2021/07/10 10:41:22;;;;;;;8.98;8.23;;;;;;;25.09;49.45;100945.47;5037684;28;20210;-65
2021/07/10 10:43:49;;;;;;;9.02;8.23;;;;;;;25.05;48.24;100938.72;5035922;28;20205;-65
2021/07/10 10:46:19;;;;;;;7.72;7.03;;;;;;;25.07;48.25;100934.78;5034658;28;20229;-65
2021/07/10 10:48:45;;;;;;;8.05;7.25;;;;;;;25.12;48.23;100937.78;5044519;28;20204;-65
2021/07/10 10:51:34;;;;;;;9.10;7.65;;;;;;;25.19;47.80;100937.91;5038688;28;20577;-65
2021/07/10 10:54:27;;;;;;;7.63;6.93;;;;;;;25.29;47.51;100941.22;5033873;28;20210;-66
2021/07/10 10:56:54;;;;;;;9.00;6.45;;;;;;;25.34;46.27;100937.94;5039060;28;20642;-65
2021/07/10 10:59:38;;;;;;;7.25;6.60;;;;;;;25.43;45.98;100932.22;5046231;28;20240;-64
2021/07/10 11:02:46;;;;;;;6.80;6.20;;;;;;;25.52;46.25;100935.69;5044376;28;20685;-64
2021/07/10 11:05:13;;;;;;;5.95;5.47;;;;;;;25.67;46.49;100938.44;5037032;28;20244;-65
2021/07/10 11:07:39;;;;;;;5.93;4.90;;;;;;;25.78;45.27;100930.66;5041632;28;20210;-65
2021/07/10 11:10:13;;;;;;;6.07;5.13;;;;;;;25.79;44.79;100931.50;5039849;28;20663;-65
2021/07/10 11:12:57;;;;;;;6.68;6.07;;;;;;;25.79;44.51;100932.34;5042564;28;20205;-65
2021/07/10 11:15:39;;;;;;;6.88;5.95;;;;;;;25.81;44.57;100935.72;5037911;28;20214;-66